• Join FlightAware (Why Join?)
  • Login
  • US Flag 
06:50AM EDT


 

Airport Tracker/Info


-or-


 

Live Flight TrackerFlight Track Log ✈ UPS1081 ✈ 09-May-2013 ✈ KEWR - KSDF

Flight Track Log - Related Links

Times and Time Zones

All times are in EDT time to prevent confusion due to time zone crossing. See the UPS1081 flight status page for this flight to view local times or setup timezone preferences in your user account.

Time Position Orientation Groundspeed Altitude Reporting Facility
EDT Latitude Longitude Course Direction KTS MPH feet Rate Location/Type
11:02PM 40.6751 -74.1790 204° Southwest 168 193 800  Level FlightAware ADS-B
11:03PM 40.6707 -74.1808 197° South 164 189 1,200 3,960 Climbing FlightAware ADS-B
11:03PM 40.6684 -74.1814 191° South 166 191 1,400 2,520 Climbing FlightAware ADS-B
11:03PM 40.6653 -74.1815 181° South 171 197 1,500 1,980 Climbing FlightAware ADS-B
11:03PM 40.6617 -74.1814 179° South 176 203 1,700 2,400 Climbing FlightAware ADS-B
11:03PM 40.6576 -74.1809 175° South 181 208 1,900 1,680 Climbing FlightAware ADS-B
11:03PM 40.6498 -74.1803 177° South 193 222 2,100 1,440 Climbing FlightAware ADS-B
11:03PM 40.6340 -74.1809 182° South 213 245 2,500 1,260 Climbing FlightAware ADS-B
11:03PM 40.6265 -74.1801 175° South 234 269 2,600 1,500 Climbing FlightAware ADS-B
11:03PM 40.6206 -74.1800 179° South 239 275 2,800 1,200 Climbing FlightAware ADS-B
11:04PM 40.6159 -74.1810 189° South 246 283 2,800 720 Level FlightAware ADS-B
11:04PM 40.6120 -74.1824 195° South 251 289 2,900 1,500 Climbing FlightAware ADS-B
11:04PM 40.6070 -74.1857 207° Southwest 255 293 3,000 2,280 Climbing FlightAware ADS-B
11:04PM 40.5998 -74.1938 221° Southwest 255 293 3,400 3,420 Climbing FlightAware ADS-B
11:04PM 40.5959 -74.2014 236° Southwest 255 293 3,800 3,600 Climbing FlightAware ADS-B
11:04PM 40.5941 -74.2071 247° West 255 293 4,000 3,000 Climbing FlightAware ADS-B
11:04PM 40.5928 -74.2130 254° West 255 293 4,200 3,420 Climbing FlightAware ADS-B
11:04PM 40.5923 -74.2176 262° West 255 293 4,400 3,960 Climbing FlightAware ADS-B
11:04PM 40.5921 -74.2222 267° West 255 293 4,600 3,300 Climbing FlightAware ADS-B
11:04PM 40.5925 -74.2314 273° West 255 293 4,900 3,600 Climbing FlightAware ADS-B
11:04PM 40.5938 -74.2454 277° West 258 297 5,500 3,600 Climbing FlightAware ADS-B
11:04PM 40.5945 -74.2548 276° West 259 298 5,800 3,600 Climbing FlightAware ADS-B
11:05PM 40.5958 -74.2706 276° West 263 303 6,400 3,600 Climbing FlightAware ADS-B
11:05PM 40.5966 -74.2786 278° West 265 305 6,700 3,120 Climbing FlightAware ADS-B
11:05PM 40.5981 -74.2964 276° West 267 307 7,300 3,180 Climbing FlightAware ADS-B
11:05PM 40.5987 -74.3028 277° West 268 308 7,500 3,300 Climbing FlightAware ADS-B
11:05PM 40.5993 -74.3109 276° West 270 311 7,800 3,480 Climbing FlightAware ADS-B
11:05PM 40.6008 -74.3307 276° West 272 313 8,500 3,420 Climbing FlightAware ADS-B
11:05PM 40.6016 -74.3422 275° West 274 315 8,900 3,540 Climbing FlightAware ADS-B
11:06PM 40.6031 -74.3690 274° West 276 318 9,800 3,420 Climbing FlightAware ADS-B
11:06PM 40.6034 -74.3741 274° West 276 318 10,000 2,100 Climbing FlightAware ADS-B
11:06PM 40.6063 -74.4214 275° West 305 351 10,900 1,620 Climbing FlightAware ADS-B
11:06PM 40.6092 -74.4599 276° West 330 380 11,300 1,260 Climbing FlightAware ADS-B
11:07PM 40.6093 -74.4763 270° West 342 394 11,500 1,500 Climbing FlightAware ADS-B
11:07PM 40.6077 -74.4930 263° West 352 405 11,700 1,320 Climbing FlightAware ADS-B
11:07PM 40.6073 -74.4952 257° West 294 338 11,700 2,400 Level FlightAware ADS-B
11:07PM 40.5921 -74.5590 253° West 372 428 12,900 2,580 Climbing FlightAware ADS-B
11:08PM 40.5750 -74.6241 251° West 379 436 14,300 2,640 Climbing FlightAware ADS-B
11:08PM 40.5563 -74.6947 251° West 389 448 15,700 2,460 Climbing FlightAware ADS-B
11:09PM 40.5382 -74.7627 251° West 399 459 16,900 2,400 Climbing FlightAware ADS-B
11:09PM 40.5197 -74.8339 251° West 404 465 18,200 2,400 Climbing FlightAware ADS-B
11:10PM 40.5008 -74.9040 250° West 409 471 19,400 2,280 Climbing FlightAware ADS-B
11:10PM 40.4807 -74.9796 251° West 416 479 20,600 2,220 Climbing FlightAware ADS-B
11:11PM 40.4613 -75.0515 250° West 423 487 21,700 2,100 Climbing FlightAware ADS-B
11:11PM 40.4412 -75.1246 250° West 430 495 22,700 1,740 Climbing FlightAware ADS-B
11:12PM 40.4204 -75.2042 251° West 438 504 23,500 1,740 Climbing FlightAware ADS-B
11:12PM 40.3996 -75.2797 250° West 442 509 24,500 1,740 Climbing FlightAware ADS-B
11:13PM 40.3786 -75.3561 250° West 449 517 25,300 1,620 Climbing FlightAware ADS-B
11:14PM 40.3479 -75.4694 250° West 455 524 26,500 1,560 Climbing FlightAware ADS-B
11:14PM 40.3249 -75.5531 250° West 462 532 27,300 1,680 Climbing FlightAware ADS-B
11:15PM 40.3027 -75.6347 250° West 460 529 28,300 1,920 Climbing FlightAware ADS-B
11:15PM 40.2811 -75.7124 250° West 454 522 29,300 1,860 Climbing FlightAware ADS-B
11:16PM 40.2594 -75.7897 250° West 452 520 30,200 1,740 Climbing FlightAware ADS-B
11:16PM 40.2378 -75.8693 250° West 450 518 31,100 1,620 Climbing FlightAware ADS-B
11:17PM 40.2165 -75.9455 250° West 446 513 31,900 900 Climbing FlightAware ADS-B
11:17PM 40.1951 -76.0218 250° West 450 518 32,000 60 Climbing FlightAware ADS-B
11:18PM 40.1735 -76.1008 250° West 450 518 32,000  Level FlightAware ADS-B
11:18PM 40.1519 -76.1773 250° West 450 518 32,000  Level FlightAware ADS-B
11:19PM 40.1343 -76.2386 249° West 450 518 32,000  Level FlightAware ADS-B
11:19PM 40.1193 -76.2838 247° West 456 525 32,000  Level FlightAware ADS-B
11:19PM 40.1046 -76.3234 244° Southwest 461 531 32,000  Level FlightAware ADS-B
11:20PM 40.0707 -76.3980 239° Southwest 466 536 32,000  Level FlightAware ADS-B
11:20PM 40.0364 -76.4702 238° Southwest 465 535 32,000  Level FlightAware ADS-B
11:21PM 40.0029 -76.5444 240° Southwest 464 534 32,000  Level FlightAware ADS-B
11:21PM 39.9682 -76.6183 239° Southwest 464 534 32,000  Level FlightAware ADS-B
11:22PM 39.9276 -76.7042 238° Southwest 463 533 32,000  Level FlightAware ADS-B
11:22PM 39.8928 -76.7804 239° Southwest 461 531 32,000  Level FlightAware ADS-B
11:23PM 39.8555 -76.8583 238° Southwest 459 528 32,000  Level FlightAware ADS-B
11:23PM 39.8206 -76.9333 239° Southwest 456 525 32,000  Level FlightAware ADS-B
11:24PM 39.7853 -77.0078 238° Southwest 452 520 32,000  Level FlightAware ADS-B
11:25PM 39.7497 -77.0837 239° Southwest 447 514 32,000  Level FlightAware ADS-B
11:25PM 39.7143 -77.1591 239° Southwest 447 514 32,000  Level FlightAware ADS-B
11:26PM 39.6796 -77.2327 239° Southwest 451 519 32,000  Level FlightAware ADS-B
11:26PM 39.6468 -77.3019 238° Southwest 452 520 32,000  Level FlightAware ADS-B
11:27PM 39.6129 -77.3734 238° Southwest 452 520 32,000  Level FlightAware ADS-B
11:27PM 39.5796 -77.4426 238° Southwest 453 521 32,000  Level FlightAware ADS-B
11:28PM 39.5459 -77.5141 239° Southwest 453 521 32,000  Level FlightAware ADS-B
11:28PM 39.5127 -77.5832 238° Southwest 452 520 32,000  Level FlightAware ADS-B
11:29PM 39.4797 -77.6518 238° Southwest 451 519 32,000  Level FlightAware ADS-B
11:29PM 39.4466 -77.7204 238° Southwest 450 518 32,000  Level FlightAware ADS-B
11:30PM 39.4133 -77.7889 238° Southwest 450 518 32,000  Level FlightAware ADS-B
11:30PM 39.3803 -77.8600 239° Southwest 447 514 32,000  Level FlightAware ADS-B
11:31PM 39.3493 -77.9352 242° Southwest 444 511 32,000  Level FlightAware ADS-B
11:31PM 39.3203 -78.0087 243° Southwest 444 511 32,000  Level FlightAware ADS-B
11:32PM 39.2960 -78.0730 244° Southwest 445 512 32,000  Level FlightAware
11:32PM 39.2912 -78.0844 241° Southwest 445 512 32,000  Level FlightAware ADS-B
11:32PM 39.2616 -78.1577 242° Southwest 445 512 32,000  Level FlightAware ADS-B
11:33PM 39.2200 -78.2610 243° Southwest 442 509 32,000  Level FlightAware
11:34PM 39.1780 -78.3660 243° Southwest 441 507 32,000  Level FlightAware
11:34PM 39.1400 -78.4600 242° Southwest 443 510 32,000  Level FlightAware
11:35PM 39.1060 -78.5690 248° West 436 502 32,000  Level FlightAware
11:36PM 39.0850 -78.6690 255° West 437 503 32,000  Level FlightAware
11:37PM 39.0600 -78.7810 254° West 436 502 32,000  Level FlightAware
11:37PM 39.0380 -78.8810 254° West 436 502 32,000  Level FlightAware
11:38PM 39.0150 -78.9810 254° West 437 503 32,000  Level FlightAware
11:39PM 38.9900 -79.0930 254° West 436 502 32,000  Level FlightAware
11:39PM 38.9670 -79.1920 253° West 434 499 32,000  Level FlightAware
11:40PM 38.9450 -79.2910 254° West 431 496 32,000  Level FlightAware
11:41PM 38.9200 -79.4010 254° West 426 490 32,000  Level FlightAware
11:41PM 38.8980 -79.4970 254° West 423 487 32,000  Level FlightAware
11:42PM 38.8740 -79.6010 254° West 423 487 32,000  Level FlightAware
11:43PM 38.8510 -79.7000 253° West 424 488 32,000  Level FlightAware
11:44PM 38.8300 -79.7920 254° West 429 494 32,000  Level FlightAware
11:44PM 38.8020 -79.9090 253° West 428 493 32,000  Level FlightAware
11:45PM 38.7800 -80.0020 253° West 417 480 32,000  Level FlightAware
11:46PM 38.7600 -80.0900 254° West 419 482 32,000  Level FlightAware
11:46PM 38.7360 -80.1880 253° West 429 494 32,000  Level FlightAware
11:47PM 38.7130 -80.2860 253° West 429 494 32,000  Level FlightAware
11:48PM 38.6930 -80.3680 253° West 429 494 32,000  Level FlightAware
11:48PM 38.6740 -80.4510 254° West 429 494 32,000  Level FlightAware
11:49PM 38.6490 -80.5540 253° West 429 494 32,000  Level FlightAware
11:50PM 38.6120 -80.7080 253° West 436 502 32,000  Level FlightAware
11:51PM 38.5860 -80.8170 253° West 436 502 32,000  Level FlightAware
11:51PM 38.5560 -80.9380 252° West 437 503 32,000  Level FlightAware
11:52PM 38.5350 -81.0260 253° West 437 503 32,000  Level FlightAware
11:53PM 38.5050 -81.1470 252° West 437 503 32,000  Level FlightAware
11:53PM 38.4810 -81.2460 253° West 437 503 32,000  Level FlightAware
11:54PM 38.4570 -81.3410 252° West 435 501 32,000  Level FlightAware
11:55PM 38.4300 -81.4510 253° West 434 499 32,000  Level FlightAware
11:55PM 38.4050 -81.5480 252° West 432 497 32,000  Level FlightAware
11:56PM 38.3770 -81.6600 252° West 433 498 32,000  Level FlightAware
11:57PM 38.3530 -81.7570 253° West 433 498 32,000  Level FlightAware
11:58PM 38.3270 -81.8540 251° West 435 501 32,000  Level FlightAware
11:58PM 38.2970 -81.9580 250° West 436 502 32,000  Level FlightAware
11:59PM 38.2690 -82.0570 250° West 437 503 32,000  Level FlightAware
12:00AM 38.2380 -82.1660 250° West 438 504 32,000  Level FlightAware
12:00AM 38.2110 -82.2660 251° West 438 504 32,000  Level FlightAware
12:01AM 38.1830 -82.3620 250° West 437 503 32,000  Level FlightAware
12:02AM 38.1530 -82.4660 250° West 435 501 32,000  Level FlightAware
12:02AM 38.1352 -82.5284 250° West 436 502 32,000  Level FlightAware ADS-B
12:03AM 38.1009 -82.6488 250° West 436 502 32,000  Level FlightAware ADS-B
12:04AM 38.0795 -82.7238 250° West 440 506 32,000  Level FlightAware ADS-B
12:04AM 38.0576 -82.7990 250° West 441 507 32,000  Level FlightAware ADS-B
12:05AM 38.0187 -82.9329 250° West 442 509 32,000  Level FlightAware ADS-B
12:05AM 37.9965 -83.0085 250° West 443 510 32,000  Level FlightAware ADS-B
12:06AM 37.9742 -83.0840 249° West 443 510 32,000  Level FlightAware ADS-B
12:07AM 37.9525 -83.1597 250° West 444 511 32,000  Level FlightAware ADS-B
12:07AM 37.9294 -83.2374 249° West 443 510 32,000 -480 Level FlightAware ADS-B
12:08AM 37.9055 -83.3198 250° West 444 511 31,500 -1,080 Descending FlightAware ADS-B
12:08AM 37.8810 -83.4025 249° West 445 512 30,800 -1,320 Descending FlightAware ADS-B
12:09AM 37.8589 -83.4755 249° West 443 510 30,100 -1,500 Descending FlightAware ADS-B
12:09AM 37.8311 -83.5698 250° West 440 506 29,100 -1,620 Descending FlightAware ADS-B
12:10AM 37.8054 -83.6562 249° West 440 506 28,100 -1,560 Descending FlightAware ADS-B
12:11AM 37.7755 -83.7568 249° West 436 502 27,100 -1,500 Descending FlightAware ADS-B
12:11AM 37.7538 -83.8288 249° West 441 507 26,300 -1,620 Descending FlightAware ADS-B
12:12AM 37.7314 -83.9038 249° West 443 510 25,500 -1,560 Descending FlightAware ADS-B
12:12AM 37.6938 -84.0268 249° West 443 510 24,200 -1,620 Descending FlightAware ADS-B
12:13AM 37.6619 -84.1328 249° West 445 512 23,000 -1,560 Descending FlightAware ADS-B
12:14AM 37.6360 -84.2180 249° West 436 502 22,100 -1,500 Descending FlightAware
12:14AM 37.6272 -84.2470 249° West 436 502 21,800 -1,920 Descending FlightAware ADS-B
12:15AM 37.6020 -84.3290 249° West 429 494 20,700 -1,140 Descending FlightAware
12:15AM 37.5830 -84.3920 249° West 428 493 20,600 -120 Descending FlightAware
12:16AM 37.5580 -84.4710 248° West 428 493 20,600  Level FlightAware
12:17AM 37.5280 -84.5710 249° West 428 493 20,600  Level FlightAware
12:17AM 37.5040 -84.6500 249° West 428 493 20,600  Level FlightAware
12:18AM 37.4800 -84.7290 249° West 428 493 20,600  Level FlightAware
12:19AM 37.4560 -84.8080 249° West 428 493 20,600 -2,160 Level FlightAware
12:24AM 37.7880 -85.2280 315° West 212 244 7,900 -2,340 Descending FlightAware
12:24AM 37.7910 -85.2590 277° West 211 243 7,500 -1,140 Descending FlightAware
12:25AM 37.7960 -85.2960 280° West 210 242 6,900 -1,200 Descending FlightAware
12:25AM 37.8010 -85.3270 282° West 212 244 6,400 -900 Descending FlightAware
12:26AM 37.8060 -85.3600 281° West 212 244 6,100 -420 Descending FlightAware
12:26AM 37.8260 -85.3950 306° West 227 261 6,000 -120 Descending FlightAware
12:27AM 37.8440 -85.4200 312° West 228 262 6,000  Level FlightAware
12:27AM 37.8660 -85.4490 314° West 228 262 6,000  Level FlightAware
12:28AM 37.8830 -85.4720 313° West 227 261 6,000  Level FlightAware
12:28AM 37.9110 -85.4940 328° Northwest 246 283 6,000  Level FlightAware
12:28AM 37.9220 -85.4970 348° North 246 283 6,000  Level FlightAware
12:29AM 37.9550 -85.5060 348° North 239 275 6,000  Level FlightAware
12:29AM 37.9860 -85.5130 350° North 225 259 6,000  Level FlightAware
12:30AM 38.0130 -85.5190 350° North 223 257 6,000  Level FlightAware
12:30AM 38.0440 -85.5270 349° North 225 259 6,000  Level FlightAware
12:31AM 38.0750 -85.5360 347° North 222 255 6,000 -360 Level FlightAware
12:31AM 38.0980 -85.5440 345° North 226 260 5,700 -900 Descending FlightAware
12:32AM 38.1280 -85.5550 344° North 223 257 5,200 -780 Descending FlightAware
12:32AM 38.1540 -85.5650 343° North 221 254 5,000 -240 Descending FlightAware
12:32AM 38.1840 -85.5750 345° North 222 255 5,000  Level FlightAware
12:33AM 38.1980 -85.5800 344° North 222 255 5,000  Level FlightAware
12:33AM 38.2230 -85.5890 344° North 225 259 5,000  Level FlightAware
12:33AM 38.2380 -85.5940 345° North 224 258 5,000  Level FlightAware
12:34AM 38.2680 -85.6040 345° North 225 259 5,000  Level FlightAware
12:34AM 38.2940 -85.6140 343° North 223 257 5,000  Level FlightAware
12:35AM 38.3240 -85.6240 345° North 222 255 5,000  Level FlightAware
12:35AM 38.3540 -85.6350 344° North 220 253 5,000  Level FlightAware
12:36AM 38.3780 -85.6430 345° North 220 253 5,000  Level FlightAware
12:36AM 38.4080 -85.6530 345° North 219 252 5,000  Level FlightAware
12:36AM 38.4240 -85.6580 346° North 220 253 5,000  Level FlightAware
12:37AM 38.4460 -85.6660 344° North 219 252 5,000 -180 Level FlightAware
12:37AM 38.4620 -85.6710 346° North 220 253 4,900 -960 Descending FlightAware
12:38AM 38.4930 -85.6820 344° North 223 257 4,300 -900 Descending FlightAware
12:38AM 38.5150 -85.6890 346° North 215 247 4,100 -480 Descending FlightAware
12:38AM 38.5290 -85.7010 326° Northwest 188 216 4,000 -240 Descending FlightAware
12:39AM 38.5320 -85.7130 288° West 176 203 4,000  Level FlightAware
12:39AM 38.5380 -85.7400 286° West 178 205 4,000  Level FlightAware
12:39AM 38.5420 -85.7650 282° West 177 204 4,000  Level FlightAware
12:40AM 38.5170 -85.7940 222° Southwest 178 205 4,000  Level FlightAware
12:41AM 38.4920 -85.7970 185° South 180 207 4,000  Level FlightAware
12:41AM 38.4720 -85.7970 180° South 181 208 4,000  Level FlightAware
12:41AM 38.4560 -85.7980 183° South 183 211 4,000  Level FlightAware
12:42AM 38.4210 -85.7990 181° South 183 211 4,000  Level FlightAware
12:42AM 38.3990 -85.7970 176° South 183 211 4,000 -360 Level FlightAware
12:43AM 38.3740 -85.7950 176° South 184 212 3,700 -900 Descending FlightAware
12:43AM 38.3540 -85.7890 167° South 185 213 3,200 -1,140 Descending FlightAware
12:44AM 38.3280 -85.7800 165° South 185 213 2,700 -840 Descending FlightAware
12:44AM 38.3160 -85.7760 165° South 182 209 2,600 -300 Descending FlightAware
12:45AM 38.2950 -85.7690 165° South 194 223 2,500 -600 Descending FlightAware
12:45AM 38.2700 -85.7590 163° South 181 208 2,100 -840 Descending FlightAware
12:46AM 38.2470 -85.7520 167° South 155 178 1,700 -780 Descending FlightAware
12:46AM 38.2320 -85.7470 165° South 128 147 1,400 -660 Descending FlightAware
12:46AM 38.2150 -85.7410 165° South 120 138 1,100 -720 Descending FlightAware
12:47AM 38.2060 -85.7380 165° South 121 139 900 -600 Descending FlightAware
12:47AM 38.1920 -85.7330 164° South 128 147 700 -480 Descending FlightAware